Weather observations for the past three days for
Phillips / Price County
| Date | Time (cdt) | Wind (kph) | Vis. (km) | Weather | Sky Cond. | Temperature (ºC) | Relative Humidity | Wind Chill (°C) | Heat Index (°C) | Pressure | Precipitation (cm) | ||||||
|---|---|---|---|---|---|---|---|---|---|---|---|---|---|---|---|---|---|
| Air | Dwpt | 6 hour | altimeter (cm) | sea level (mb) | 1 hr | 3 hr | 6 hr | ||||||||||
| Max. | Min. | ||||||||||||||||
| 07 | 16:35 | NW 9 | 16.09 | Overcast | OVC080 | 9 | -7.4 | 31% | 8 | 75.67 | 0.0 | ||||||
| 07 | 16:15 | NW 11 | 16.09 | Overcast | OVC085 | 8.7 | -7.2 | 32% | 7 | 75.67 | 0.0 | ||||||
| 07 | 15:55 | NW 9 | 16.09 | Overcast | OVC085 | 8.8 | -7.2 | 32% | 8 | 75.69 | 0.0 | ||||||
| 07 | 15:35 | W 9 | 16.09 | Mostly Cloudy | SCT075 BKN085 | 8.9 | -7.3 | 31% | 8 | 75.69 | 0.0 | ||||||
| 07 | 15:15 | W 7 | 16.09 | Mostly Cloudy | BKN085 | 9.6 | -7 | 31% | 9 | 75.69 | 0.0 | ||||||
| 07 | 14:55 | SW 9 G 26 | 16.09 | Mostly Cloudy | BKN080 | 8.9 | -6.9 | 32% | 8 | 75.72 | 0.0 | ||||||
| 07 | 14:35 | NW 6 | 16.09 | Overcast | OVC080 | 8.4 | -7.4 | 32% | 75.72 | 0.0 | |||||||
| 07 | 14:15 | SW 7 | 16.09 | Mostly Cloudy | BKN070 BKN085 | 8.7 | -6.2 | 35% | 8 | 75.72 | 0.0 | ||||||
| 07 | 13:55 | NW 9 | 16.09 | Overcast | BKN070 OVC085 | 7.6 | -7.3 | 34% | 6 | 75.74 | 0.0 | ||||||
| 07 | 13:35 | W 17 G 26 | 16.09 | Mostly Cloudy | SCT070 BKN080 | 8.2 | -6.5 | 35% | 6 | 75.74 | 0.0 | ||||||
| 07 | 13:15 | NW 7 | 16.09 | Overcast | OVC080 | 8.3 | -7.1 | 33% | 7 | 75.74 | 0.0 | ||||||
| 07 | 12:55 | NW 9 | 16.09 | Overcast | SCT070 OVC080 | 7.3 | -7.3 | 7.9 | 1.7 | 35% | 6 | 75.77 | 0.0 | ||||
| 07 | 12:35 | NW 7 | 16.09 | Overcast | BKN060 OVC080 | 6.6 | -7.2 | 37% | 5 | 75.77 | 0.0 | ||||||
| 07 | 12:15 | NW 7 | 16.09 | Overcast | SCT060 OVC080 | 6.3 | -6.2 | 41% | 5 | 75.79 | 0.0 | ||||||
| 07 | 11:55 | W 7 | 16.09 | Overcast | BKN060 OVC080 | 5.9 | -6.5 | 41% | 5 | 75.82 | 0.0 | ||||||
| 07 | 11:35 | SW 11 | 16.09 | Overcast | SCT060 OVC070 | 6.1 | -6 | 42% | 4 | 75.82 | 0.0 | ||||||
| 07 | 11:15 | W 9 | 16.09 | Overcast | BKN050 BKN065 OVC075 | 6.3 | -6 | 41% | 5 | 75.82 | 0.0 | ||||||
| 07 | 10:55 | SW 11 | 16.09 | Overcast | SCT050 OVC075 | 5.3 | -5.3 | 47% | 3 | 75.84 | 0.0 | ||||||
| 07 | 10:35 | SW 19 G 28 | 16.09 | Mostly Cloudy | SCT048 SCT065 BKN070 | 5.4 | -4.8 | 48% | 2 | 75.84 | 0.0 | ||||||
| 07 | 10:15 | W 15 | 16.09 | Mostly Cloudy | SCT044 BKN060 BKN075 | 4.6 | -4.8 | 51% | 2 | 75.84 | 0.0 | ||||||
| 07 | 09:55 | SW 11 | 16.09 | Partly Cloudy | SCT039 SCT048 SCT060 | 5 | -3.7 | 54% | 3 | 75.87 | 0.0 | ||||||
| 07 | 09:35 | W 9 | 16.09 | Partly Cloudy | SCT075 | 5.2 | -2.9 | 56% | 3 | 75.87 | 0.0 | ||||||
| 07 | 09:15 | W 7 | 16.09 | Overcast | OVC075 | 4 | -3.4 | 59% | 2 | 75.9 | 0.0 | ||||||
| 07 | 08:55 | NW 6 | 16.09 | Overcast | OVC075 | 3.5 | -3.2 | 62% | 75.9 | 0.0 | |||||||
| 07 | 08:35 | W 6 | 16.09 | Overcast | OVC075 | 3.1 | -2.9 | 65% | 75.9 | 0.0 | |||||||
| 07 | 08:15 | SW 7 | 16.09 | Overcast | OVC075 | 2.7 | -3 | 66% | 1 | 75.9 | 0.0 | ||||||
| 07 | 07:55 | Calm | 16.09 | Overcast | OVC075 | 2.3 | -3.2 | 67% | 75.9 | 0.0 | |||||||
| 07 | 07:35 | W 6 | 16.09 | Overcast | OVC075 | 2 | -3.5 | 67% | 75.9 | 0.0 | |||||||
| 07 | 07:15 | SW 9 | 16.09 | Overcast | OVC065 | 1.7 | -3.5 | 69% | -1 | 75.87 | 0.0 | ||||||
| 07 | 06:55 | W 6 | 16.09 | Overcast | OVC065 | 1.7 | -3.6 | 2.5 | 1.7 | 68% | 75.87 | 0.0 | |||||
| 07 | 06:35 | W 6 | 16.09 | Overcast | OVC055 | 1.8 | -3.8 | 67% | 75.87 | 0.0 | |||||||
| 07 | 06:15 | W 9 | 16.09 | Overcast | OVC055 | 2 | -3.8 | 66% | -0 | 75.87 | 0.0 | ||||||
| 07 | 05:55 | SW 13 | 16.09 | Overcast | OVC055 | 2 | -3.7 | 66% | -1 | 75.87 | 0.0 | ||||||
| 07 | 05:35 | SW 9 | 16.09 | Overcast | OVC055 | 2 | -3.5 | 67% | -0 | 75.87 | 0.0 | ||||||
| 07 | 05:15 | SW 9 | 16.09 | Overcast | OVC055 | 1.9 | -4 | 65% | -1 | 75.87 | 0.0 | ||||||
| 07 | 04:55 | W 7 | 16.09 | Overcast | OVC055 | 1.9 | -4 | 65% | 0 | 75.87 | 0.0 | ||||||
| 07 | 04:35 | W 9 | 16.09 | Overcast | OVC055 | 1.8 | -4.1 | 65% | -1 | 75.87 | 0.0 | ||||||
| 07 | 04:15 | W 6 | 16.09 | Overcast | OVC055 | 1.7 | -4.1 | 66% | 75.87 | 0.0 | |||||||
| 07 | 03:55 | Calm | 16.09 | Overcast | OVC055 | 1.8 | -4.2 | 65% | 75.87 | 0.0 | |||||||
| 07 | 03:35 | Calm | 16.09 | Overcast | OVC055 | 1.7 | -4.2 | 65% | 75.9 | 0.0 | |||||||
| 07 | 03:15 | SW 6 | 16.09 | Overcast | OVC055 | 1.9 | -4.4 | 63% | 75.9 | 0.0 | |||||||
| 07 | 02:55 | W 6 | 16.09 | Overcast | OVC055 | 2 | -4.5 | 62% | 75.9 | 0.0 | |||||||
| 07 | 02:35 | W 6 | 16.09 | Overcast | OVC055 | 2 | -4.5 | 62% | 75.9 | 0.0 | |||||||
| 07 | 02:15 | SW 6 | 16.09 | Overcast | OVC055 | 2.2 | -4.5 | 62% | 75.92 | 0.0 | |||||||
| 07 | 01:55 | SW 7 | 16.09 | Overcast | OVC055 | 2.4 | -4.7 | 60% | 1 | 75.92 | 0.0 | ||||||
| 07 | 01:35 | SW 7 | 16.09 | Overcast | OVC055 | 2.5 | -4.7 | 59% | 1 | 75.95 | 0.0 | ||||||
| 07 | 01:15 | SW 6 | 16.09 | Overcast | OVC055 | 2.5 | -4.8 | 59% | 75.95 | 0.0 | |||||||
| 07 | 00:55 | W 6 | 16.09 | Overcast | OVC055 | 2.5 | -4.9 | 4.3 | 2.5 | 59% | 75.97 | 0.0 | |||||
| 07 | 00:35 | W 6 | 16.09 | Overcast | OVC055 | 2.7 | -5 | 57% | 75.97 | 0.0 | |||||||
| 07 | 00:20 | W 6 | 16.09 | Overcast | OVC055 | 2.7 | -5 | 57% | 75.97 | 0.0 | |||||||
| 06 | 23:55 | W 6 | 16.09 | Overcast | OVC055 | 2.8 | -4.8 | 58% | 76 | 0.0 | |||||||
| 06 | 23:35 | W 7 | 16.09 | Overcast | OVC055 | 3 | -5 | 56% | 1 | 76 | 0.0 | ||||||
| 06 | 23:15 | W 6 | 16.09 | Overcast | OVC055 | 3.1 | -4.9 | 56% | 76 | 0.0 | |||||||
| 06 | 22:55 | W 7 | 16.09 | Overcast | OVC055 | 3.2 | -4.8 | 56% | 2 | 76 | 0.0 | ||||||
| 06 | 22:35 | W 7 | 16.09 | Overcast | OVC055 | 3.3 | -4.7 | 56% | 2 | 76 | 0.0 | ||||||
| 06 | 22:15 | W 6 | 16.09 | Overcast | OVC055 | 3.5 | -4.8 | 55% | 76.02 | 0.0 | |||||||
| 06 | 21:55 | Calm | 16.09 | Overcast | OVC055 | 3.5 | -4.9 | 55% | 76 | 0.0 | |||||||
| 06 | 21:35 | W 6 | 16.09 | Overcast | OVC055 | 3.6 | -5 | 54% | 76 | 0.0 | |||||||
| 06 | 21:15 | W 6 | 16.09 | Overcast | OVC055 | 3.7 | -5 | 53% | 76 | 0.0 | |||||||
| 06 | 20:55 | W 6 | 16.09 | Overcast | SCT049 OVC055 | 3.9 | -5 | 53% | 76 | 0.0 | |||||||
| 06 | 20:35 | Calm | 16.09 | Overcast | SCT049 OVC055 | 4 | -5 | 52% | 76 | 0.0 | |||||||
| 06 | 20:15 | W 6 | 16.09 | Overcast | SCT049 OVC055 | 4 | -4.9 | 53% | 76 | 0.0 | |||||||
| 06 | 19:55 | W 6 | 16.09 | Overcast | SCT049 OVC055 | 4.1 | -5.2 | 51% | 76 | 0.0 | |||||||
| 06 | 19:35 | W 6 | 16.09 | Overcast | OVC055 | 4.3 | -5.4 | 50% | 75.97 | 0.0 | |||||||
| 06 | 19:15 | W 9 | 16.09 | Overcast | OVC055 | 4.3 | -5.6 | 49% | 2 | 76 | 0.0 | ||||||
| 06 | 18:55 | W 9 | 16.09 | Overcast | OVC055 | 4.3 | -5.8 | 4.7 | 4 | 48% | 2 | 76 | 0.0 | ||||
| 06 | 18:35 | NW 9 | 16.09 | Overcast | OVC049 | 4.3 | -6 | 47% | 2 | 76 | 0.0 | ||||||
| 06 | 18:15 | W 6 | 16.09 | Overcast | OVC049 | 4.4 | -5.6 | 49% | 76 | 0.0 | |||||||
| 06 | 17:55 | NW 13 | 16.09 | Overcast | OVC049 | 4.3 | -5.7 | 49% | 2 | 76 | 0.0 | ||||||
| 06 | 17:35 | NW 7 | 16.09 | Overcast | OVC049 | 4.2 | -5.8 | 49% | 3 | 76 | 0.0 | ||||||
| 06 | 17:15 | NW 9 | 16.09 | Overcast | OVC049 | 4.2 | -5.9 | 48% | 2 | 76 | 0.0 | ||||||
| 06 | 16:55 | W 11 | 16.09 | Overcast | OVC047 | 4.3 | -5.6 | 49% | 2 | 76 | 0.0 | ||||||
| 06 | 16:35 | NW 6 | 16.09 | Overcast | OVC047 | 4 | -5.5 | 50% | 76 | 0.0 | |||||||
| 06 | 16:15 | NW 11 | 16.09 | Overcast | OVC045 | 4.1 | -5.5 | 50% | 2 | 76 | 0.0 | ||||||
| 06 | 15:55 | NW 19 G 31 | 16.09 | Overcast | OVC045 | 4.3 | -5.2 | 50% | 1 | 76 | 0.0 | ||||||
| 06 | 15:35 | W 11 G 28 | 16.09 | Overcast | OVC045 | 4.2 | -5.6 | 49% | 2 | 76 | 0.0 | ||||||
| 06 | 15:15 | SW 17 | 16.09 | Overcast | OVC047 | 4.4 | -5.5 | 49% | 1 | 76 | 0.0 | ||||||
| 06 | 14:55 | NW 17 | 16.09 | Overcast | OVC049 | 4.2 | -6 | 48% | 1 | 76 | 0.0 | ||||||
| 06 | 14:35 | W 11 G 28 | 16.09 | Overcast | OVC049 | 4.2 | -5.9 | 48% | 2 | 76 | 0.0 | ||||||
| 06 | 14:15 | W 13 | 16.09 | Overcast | OVC047 | 4.5 | -6 | 47% | 2 | 76 | 0.0 | ||||||
| 06 | 13:55 | W 11 | 16.09 | Overcast | OVC049 | 4.7 | -5.6 | 48% | 2 | 76 | 0.0 | ||||||
| 06 | 13:35 | NW 15 | 16.09 | Overcast | OVC049 | 4.5 | -5.7 | 48% | 2 | 76 | 0.0 | ||||||
| 06 | 13:15 | W 11 | 16.09 | Overcast | OVC049 | 4.5 | -5.8 | 48% | 2 | 76 | 0.0 | ||||||
| 06 | 12:55 | NW 13 | 16.09 | Overcast | OVC049 | 4.3 | -6.4 | 4.5 | 0.5 | 46% | 2 | 76 | 0.0 | ||||
| 06 | 12:35 | W 15 | 16.09 | Overcast | OVC049 | 4.3 | -6.4 | 46% | 1 | 76 | 0.0 | ||||||
| 06 | 12:15 | W 9 | 16.09 | Overcast | OVC049 | 4.1 | -6.5 | 46% | 2 | 76.02 | 0.0 | ||||||
| 06 | 11:55 | W 13 | 16.09 | Overcast | OVC049 | 4.3 | -6.1 | 47% | 2 | 76 | 0.0 | ||||||
| 06 | 11:35 | W 13 | 16.09 | Overcast | OVC049 | 3.8 | -6.8 | 46% | 1 | 76 | 0.0 | ||||||
| 06 | 11:15 | W 13 G 31 | 16.09 | Overcast | OVC049 | 4.1 | -6.9 | 45% | 1 | 76 | 0.0 | ||||||
| 06 | 10:55 | NW 13 G 35 | 16.09 | Overcast | OVC049 | 4.3 | -6.9 | 44% | 2 | 76 | 0.0 | ||||||
| 06 | 10:35 | NW 13 | 16.09 | Overcast | OVC049 | 3.5 | -7.4 | 45% | 1 | 76 | 0.0 | ||||||
| 06 | 10:15 | NW 9 G 26 | 16.09 | Overcast | OVC049 | 3.1 | -6.8 | 49% | 1 | 76 | 0.0 | ||||||
| 06 | 09:55 | NW 13 G 26 | 16.09 | Overcast | OVC049 | 2.6 | -7.7 | 47% | -0 | 76 | 0.0 | ||||||
| 06 | 09:35 | NW 9 G 26 | 16.09 | Overcast | OVC049 | 2.8 | -7.5 | 47% | 1 | 76 | 0.0 | ||||||
| 06 | 09:15 | NW 19 G 28 | 16.09 | Mostly Cloudy | BKN049 | 3.1 | -8.1 | 44% | -1 | 76 | 0.0 | ||||||
| 06 | 08:55 | NW 15 G 28 | 16.09 | Mostly Cloudy | BKN047 | 1.8 | -7.8 | 49% | -2 | 76 | 0.0 | ||||||
| 06 | 08:35 | NW 15 | 16.09 | Overcast | SCT038 BKN043 OVC049 | 1.3 | -6.2 | 58% | -2 | 75.97 | 0.0 | ||||||
| 06 | 08:15 | NW 15 | 16.09 | Overcast | OVC040 | 1.1 | -6.1 | 59% | -3 | 75.97 | 0.0 | ||||||
| 06 | 07:55 | NW 7 | 16.09 | Overcast | OVC044 | 1.2 | -5.8 | 60% | -1 | 75.97 | 0.0 | ||||||
| 06 | 07:35 | Calm | 16.09 | Overcast | OVC042 | 1 | -5.5 | 62% | 75.97 | 0.0 | |||||||
| 06 | 07:15 | W 6 | 16.09 | Overcast | OVC040 | 0.7 | -5.3 | 65% | 75.92 | 0.0 | |||||||
| 06 | 06:55 | Calm | 16.09 | Overcast | OVC042 | 0.5 | -5.1 | 2 | 0 | 66% | 75.92 | 0.0 | |||||
| 06 | 06:35 | Calm | 16.09 | Overcast | OVC040 | 0.5 | -5.1 | 66% | 75.9 | 0.0 | |||||||
| 06 | 06:15 | Calm | 16.09 | Overcast | OVC040 | 0.3 | -5.4 | 66% | 75.9 | 0.0 | |||||||
| 06 | 05:55 | W 6 | 16.09 | Overcast | OVC044 | 0.2 | -5.3 | 67% | 75.9 | 0.0 | |||||||
| 06 | 05:35 | Calm | 16.09 | Overcast | OVC044 | 0.2 | -5.3 | 67% | 75.9 | 0.0 | |||||||
| 06 | 05:15 | Calm | 16.09 | Overcast | OVC046 | 0.3 | -5.4 | 66% | 75.9 | 0.0 | |||||||
| 06 | 04:55 | Calm | 16.09 | Overcast | OVC046 | 0.1 | -5.8 | 65% | 75.9 | 0.0 | |||||||
| 06 | 04:35 | Calm | 16.09 | Overcast | BKN046 OVC060 | 0 | -5.8 | 65% | 75.87 | 0.0 | |||||||
| 06 | 04:15 | Calm | 16.09 | Overcast | OVC060 | 0.2 | -5.6 | 65% | 75.87 | 0.0 | |||||||
| 06 | 03:55 | NW 7 | 16.09 | Overcast | OVC060 | 0.6 | -5.5 | 64% | -1 | 75.87 | 0.0 | ||||||
| 06 | 03:35 | NW 6 | 16.09 | Overcast | OVC060 | 1 | -5.4 | 63% | 75.84 | 0.0 | |||||||
| 06 | 03:15 | NW 6 | 16.09 | Overcast | OVC060 | 1.3 | -5.5 | 61% | 75.84 | 0.0 | |||||||
| 06 | 02:55 | NW 9 | 16.09 | Overcast | OVC060 | 1.6 | -5.4 | 60% | -1 | 75.84 | 0.0 | ||||||
| 06 | 02:35 | Calm | 16.09 | Overcast | OVC060 | 1.7 | -5.2 | 61% | 75.84 | 0.0 | |||||||
| 06 | 02:15 | NW 6 | 16.09 | Overcast | OVC060 | 1.8 | -5.3 | 60% | 75.84 | 0.0 | |||||||
| 06 | 01:55 | Calm | 16.09 | Overcast | OVC060 | 1.9 | -5 | 61% | 75.84 | 0.0 | |||||||
| 06 | 01:35 | NW 6 | 16.09 | Overcast | OVC060 | 2 | -5 | 60% | 75.84 | 0.0 | |||||||
| 06 | 01:15 | Calm | 16.09 | Overcast | OVC060 | 2 | -4.7 | 62% | 75.82 | 0.0 | |||||||
| 06 | 00:55 | Calm | 16.09 | Overcast | OVC060 | 2 | -4.7 | 5.6 | 2 | 62% | 75.82 | 0.0 | |||||
| 06 | 00:35 | Calm | 16.09 | Overcast | OVC060 | 2.1 | -4.8 | 61% | 75.82 | 0.0 | |||||||
| 06 | 00:15 | Calm | 16.09 | Overcast | OVC060 | 2.3 | -4.7 | 60% | 75.82 | 0.0 | |||||||
| 05 | 23:55 | Calm | 16.09 | Overcast | OVC060 | 2.4 | -4.8 | 59% | 75.79 | 0.0 | |||||||
| 05 | 23:35 | Calm | 16.09 | Overcast | OVC060 | 2.5 | -4.7 | 59% | 75.82 | 0.0 | |||||||
| 05 | 23:15 | Calm | 16.09 | Overcast | OVC060 | 2.8 | -4.8 | 58% | 75.79 | 0.0 | |||||||
| 05 | 22:55 | N 6 | 16.09 | Overcast | OVC060 | 3 | -4.8 | 57% | 75.82 | 0.0 | |||||||
| 05 | 22:35 | N 7 | 16.09 | Overcast | OVC060 | 3 | -4.9 | 57% | 1 | 75.79 | 0.0 | ||||||
| 05 | 22:15 | N 6 | 16.09 | Overcast | OVC060 | 3.1 | -4.9 | 56% | 75.77 | 0.0 | |||||||
| 05 | 21:55 | NW 7 | 16.09 | Overcast | OVC070 | 3.2 | -5 | 55% | 2 | 75.74 | 0.0 | ||||||
| 05 | 21:35 | N 6 | 16.09 | Mostly Cloudy | BKN075 | 3.2 | -5.1 | 55% | 75.74 | 0.0 | |||||||
| 05 | 21:15 | NW 6 | 16.09 | Mostly Cloudy | BKN075 | 3.5 | -5 | 54% | 75.74 | 0.0 | |||||||
| 05 | 20:55 | N 6 | 16.09 | Overcast | SCT060 OVC075 | 4.2 | -5 | 52% | 75.72 | 0.0 | |||||||
| 05 | 20:35 | NW 7 | 16.09 | Overcast | BKN050 OVC075 | 4.7 | -5.1 | 49% | 3 | 75.69 | 0.0 | ||||||
| 05 | 20:15 | NW 13 | 16.09 | Overcast | OVC050 | 4.8 | -4.9 | 50% | 2 | 75.67 | 0.0 | ||||||
| 05 | 19:55 | Calm | 16.09 | Overcast | OVC050 | 5 | -5.1 | 48% | 75.67 | 0.0 | |||||||
| 05 | 19:35 | NW 7 | 16.09 | Overcast | BKN060 OVC070 | 5.3 | -5.5 | 46% | 4 | 75.67 | 0.0 | ||||||
| 05 | 19:15 | NW 7 | 16.09 | Overcast | SCT060 OVC070 | 5.5 | -5.7 | 45% | 4 | 75.64 | 0.0 | ||||||
| 05 | 18:55 | NW 11 | 16.09 | Overcast | BKN070 OVC085 | 5.6 | -5.9 | 7.1 | 3.6 | 44% | 3 | 75.64 | 0.0 | ||||
| 05 | 18:35 | NW 13 | 16.09 | Overcast | SCT060 OVC070 | 6.3 | -5.9 | 42% | 4 | 75.64 | 0.0 | ||||||
| 05 | 18:15 | W 13 | 16.09 | Overcast | BKN060 OVC070 | 5.7 | -6.3 | 42% | 3 | 75.64 | 0.0 | ||||||
| 05 | 17:55 | W 9 | 16.09 | Overcast | BKN060 OVC070 | 5.9 | -6.4 | 41% | 4 | 75.64 | 0.0 | ||||||
| 05 | 17:35 | NW 11 | 16.09 | Overcast | BKN060 OVC070 | 6 | -5.6 | 44% | 4 | 75.67 | 0.0 | ||||||
| 05 | 17:15 | NW 11 | 16.09 | Overcast | SCT050 OVC070 | 5.6 | -6 | 43% | 3 | 75.67 | 0.0 | ||||||
| 05 | 16:55 | NW 15 | 16.09 | Overcast | SCT060 OVC070 | 5.5 | -5.7 | 45% | 3 | 75.67 | 0.0 | ||||||
| 05 | 16:35 | W 11 | 16.09 | Overcast | SCT050 OVC060 | 5.3 | -5.8 | 45% | 3 | 75.67 | 0.0 | ||||||
| 05 | 16:15 | NW 20 G 33 | 16.09 | Overcast | OVC060 | 5.1 | -6.3 | 44% | 2 | 75.67 | 0.0 | ||||||
| 05 | 15:55 | W 13 G 28 | 16.09 | Overcast | OVC060 | 5.2 | -6.3 | 44% | 3 | 75.67 | 0.0 | ||||||
| 05 | 15:35 | W 11 G 30 | 16.09 | Overcast | OVC050 | 5.1 | -6.1 | 45% | 3 | 75.67 | 0.0 | ||||||
| 05 | 15:15 | W 9 G 30 | 16.09 | Overcast | OVC050 | 5.1 | -6.4 | 44% | 3 | 75.67 | 0.0 | ||||||
| 05 | 14:55 | W 13 | 16.09 | Overcast | OVC050 | 4.9 | -6.1 | 45% | 2 | 75.67 | 0.0 | ||||||
| 05 | 14:35 | W 13 | 16.09 | Overcast | OVC050 | 5.7 | -5.5 | 45% | 3 | 75.64 | 0.0 | ||||||
| 05 | 14:15 | W 13 G 35 | 16.09 | Overcast | OVC050 | 4.3 | -6.6 | 45% | 2 | 75.64 | 0.0 | ||||||
| 05 | 13:55 | NW 13 G 26 | 16.09 | Overcast | OVC050 | 4.5 | -6.5 | 45% | 2 | 75.64 | 0.0 | ||||||
| 05 | 13:35 | W 13 G 28 | 16.09 | Overcast | BKN049 OVC055 | 4.7 | -5.7 | 47% | 2 | 75.62 | 0.0 | ||||||
| 05 | 13:15 | W 17 G 37 | 16.09 | Overcast | BKN046 OVC055 | 4.9 | -5.3 | 48% | 2 | 75.62 | 0.0 | ||||||
| 05 | 12:55 | NW 17 G 39 | 16.09 | Overcast | BKN046 OVC055 | 3.7 | -5.7 | 5.3 | 0.3 | 51% | 0 | 75.62 | 0.0 | ||||
| 05 | 12:35 | W 13 G 35 | 16.09 | Overcast | OVC050 | 4 | -6.2 | 48% | 1 | 75.59 | 0.0 | ||||||
| 05 | 12:15 | W 17 G 30 | 16.09 | Overcast | OVC050 | 4.4 | -6.4 | 46% | 1 | 75.57 | 0.0 | ||||||
| 05 | 11:55 | NW 24 G 31 | 16.09 | Overcast | OVC049 | 4.4 | -6.9 | 44% | 0 | 75.57 | 0.0 | ||||||
| 05 | 11:35 | NW 11 G 37 | 16.09 | Overcast | OVC049 | 4 | -7.5 | 43% | 2 | 75.57 | 0.0 | ||||||
| 05 | 11:15 | W 13 | 16.09 | Overcast | OVC049 | 4.9 | -6.6 | 44% | 2 | 75.51 | 0.0 | ||||||
| 05 | 10:55 | W 13 | 16.09 | Overcast | BKN049 OVC065 | 4.7 | -6.2 | 45% | 2 | 75.51 | 0.0 | ||||||
| 05 | 10:35 | NW 22 G 30 | 16.09 | Mostly Cloudy | BKN055 | 5 | -6.5 | 44% | 1 | 75.49 | 0.0 | ||||||
| 05 | 10:15 | W 15 | 16.09 | Partly Cloudy | SCT041 SCT049 | 4.6 | -5.2 | 49% | 2 | 75.51 | 0.0 | ||||||
| 05 | 09:55 | W 13 | 16.09 | Mostly Cloudy | BKN038 BKN047 | 3.6 | -4.7 | 55% | 1 | 75.51 | 0.0 | ||||||
| 05 | 09:35 | W 13 | 16.09 | Partly Cloudy | SCT036 | 4.2 | -4.2 | 55% | 1 | 75.51 | 0.0 | ||||||
| 05 | 09:15 | NW 17 G 26 | 16.09 | Partly Cloudy | BKN034 SCT041 | 2.7 | -4.4 | 60% | -1 | 75.49 | 0.0 | ||||||
| 05 | 08:55 | W 9 G 28 | 16.09 | Mostly Cloudy | BKN034 BKN039 BKN045 | 2.3 | -4.8 | 60% | -0 | 75.49 | 0.0 | ||||||
| 05 | 08:35 | NW 17 G 26 | 16.09 | Partly Cloudy | SCT034 SCT039 SCT045 | 2.1 | -4.9 | 60% | -2 | 75.46 | 0.0 | ||||||
| 05 | 08:15 | W 7 | 16.09 | Partly Cloudy | SCT038 | 2.3 | -3.3 | 67% | 0 | 75.44 | 0.0 | ||||||
| 05 | 07:55 | W 11 | 16.09 | Overcast | SCT031 OVC038 | 1.6 | -3.5 | 69% | -1 | 75.41 | 0.0 | ||||||
| 05 | 07:35 | W 6 | 16.09 | Mostly Cloudy | BKN033 | 1.2 | -3.5 | 71% | 75.41 | 0.0 | |||||||
| 05 | 07:15 | W 15 | 16.09 | Mostly Cloudy | BKN033 | 1 | -3.8 | 71% | -3 | 75.39 | 0.0 | ||||||
| 05 | 06:55 | W 6 | 16.09 | Partly Cloudy | SCT035 | 0.3 | -4.2 | 2.9 | -0.3 | 72% | 75.36 | 0.0 | |||||
| 05 | 06:35 | W 6 | 16.09 | Fair | CLR | 0 | -4.5 | 72% | 75.34 | 0.0 | |||||||
| 05 | 06:15 | Calm | 16.09 | Partly Cloudy | SCT040 | -0.2 | -4.5 | 73% | 75.34 | 0.0 | |||||||
| 05 | 05:55 | W 6 | 16.09 | Partly Cloudy | SCT040 | 0 | -4.5 | 72% | 75.31 | 0.0 | |||||||
| 05 | 05:35 | Calm | 16.09 | Fair | CLR | -0.2 | -4.5 | 73% | 75.31 | 0.0 | |||||||
| 05 | 05:15 | W 6 | 16.09 | Fair | CLR | 0 | -4.8 | 70% | 75.31 | 0.0 | |||||||
| 05 | 04:55 | Calm | 16.09 | Fair | CLR | 0.3 | -4.7 | 69% | 75.29 | 0.0 | |||||||
| 05 | 04:35 | W 7 | 16.09 | Partly Cloudy | SCT046 | 0.7 | -4.7 | 68% | -1 | 75.26 | 0.0 | ||||||
| 05 | 04:15 | Calm | 16.09 | Partly Cloudy | SCT046 | 0.5 | -4.5 | 70% | 75.26 | 0.0 | |||||||
| 05 | 03:55 | Calm | 16.09 | Partly Cloudy | SCT046 | 0.4 | -4.7 | 69% | 75.23 | 0.0 | |||||||
| 05 | 03:35 | Calm | 16.09 | Fair | CLR | 0.7 | -4.6 | 68% | 75.23 | 0.0 | |||||||
| 05 | 03:15 | W 6 | 16.09 | Fair | CLR | 1.3 | -4.7 | 65% | 75.23 | 0.0 | |||||||
| 05 | 02:55 | Calm | 16.09 | Fair | CLR | 1.1 | -4.9 | 65% | 75.23 | 0.0 | |||||||
| 05 | 02:35 | Calm | 16.09 | Fair | CLR | 1.5 | -5 | 62% | 75.23 | 0.0 | |||||||
| 05 | 02:15 | Calm | 16.09 | Partly Cloudy | SCT070 | 1.8 | -4.8 | 62% | 75.26 | 0.0 | |||||||
| 05 | 01:55 | Calm | 16.09 | Mostly Cloudy | BKN070 | 2 | -4.5 | 62% | 75.23 | 0.0 | |||||||
| 05 | 01:35 | W 6 | 16.09 | Mostly Cloudy | BKN070 | 2.4 | -4.8 | 59% | 75.26 | 0.0 | |||||||
| 05 | 01:15 | Calm | 16.09 | Partly Cloudy | SCT070 | 2.5 | -5 | 58% | 75.26 | 0.0 | |||||||
| 05 | 00:55 | Calm | 16.09 | Fair | CLR | 3 | -5 | 10.3 | 3 | 56% | 75.23 | 0.0 | |||||
| 05 | 00:35 | W 6 | 16.09 | Fair | CLR | 3.3 | -5.1 | 55% | 75.23 | 0.0 | |||||||
| 05 | 00:15 | W 6 | 16.09 | Fair | CLR | 3.7 | -5.2 | 53% | 75.23 | 0.0 | |||||||
| 04 | 23:55 | W 6 | 16.09 | Partly Cloudy | SCT070 | 4 | -5.3 | 51% | 75.21 | 0.0 | |||||||
| 04 | 23:35 | NW 7 | 16.09 | Partly Cloudy | SCT065 | 4.1 | -5.4 | 50% | 3 | 75.21 | 0.0 | ||||||
| 04 | 23:15 | W 6 | 16.09 | Partly Cloudy | SCT065 | 4.2 | -5.5 | 50% | 75.21 | 0.0 | |||||||
| 04 | 22:55 | NW 9 | 16.09 | Partly Cloudy | SCT065 | 4.6 | -5.7 | 48% | 3 | 75.21 | 0.0 | ||||||
| 04 | 22:35 | NW 13 | 16.09 | Partly Cloudy | SCT065 | 4.9 | -5.8 | 46% | 2 | 75.21 | 0.0 | ||||||
| 04 | 22:15 | NW 17 G 26 | 16.09 | Partly Cloudy | SCT065 | 5.4 | -5.3 | 46% | 2 | 75.21 | 0.0 | ||||||
| 04 | 21:55 | NW 15 G 35 | 16.09 | Overcast | OVC065 | 6 | -4.7 | 47% | 3 | 75.16 | 0.0 | ||||||
| 04 | 21:35 | W 15 G 33 | 16.09 | Overcast | OVC065 | 6.3 | -4.2 | 47% | 4 | 75.16 | 0.0 | ||||||
| 04 | 21:15 | NW 11 G 35 | 16.09 | Overcast | OVC065 | 6.6 | -4.5 | 45% | 5 | 75.13 | 0.0 | ||||||
| 04 | 20:55 | NW 20 G 33 | 16.09 | Overcast | OVC065 | 7.1 | -3.9 | 46% | 4 | 75.08 | 0.0 | ||||||
| 04 | 20:35 | NW 22 G 31 | 16.09 | Mostly Cloudy | BKN065 | 7.6 | -3 | 47% | 4 | 75.06 | 0.0 | ||||||
| 04 | 20:15 | W 11 G 30 | 16.09 | Mostly Cloudy | BKN065 | 8.3 | -3.4 | 44% | 7 | 75.03 | 0.0 | ||||||
| 04 | 19:55 | NW 19 G 39 | 16.09 | Mostly Cloudy | BKN065 | 8.6 | -3.1 | 44% | 6 | 75.01 | 0.0 | ||||||
| 04 | 19:35 | NW 19 G 31 | 16.09 | Overcast | SCT065 OVC070 | 9.3 | -2.8 | 43% | 7 | 74.98 | 0.0 | ||||||
| 04 | 19:15 | NW 19 G 30 | 16.09 | Overcast | OVC065 | 9.7 | -2.4 | 43% | 7 | 74.96 | 0.0 | ||||||
| 04 | 18:55 | NW 15 G 33 | 16.09 | Mostly Cloudy | BKN065 | 10.1 | -2.5 | 16.4 | 10.1 | 42% | 74.93 | 0.0 | |||||
| 04 | 18:35 | W 19 G 33 | 16.09 | Partly Cloudy | SCT065 | 10.9 | -2.6 | 39% | 74.9 | 0.0 | |||||||
| 04 | 18:15 | W 19 G 33 | 16.09 | Mostly Cloudy | BKN065 | 12.2 | -1.7 | 38% | 74.88 | 0.0 | |||||||
| 04 | 17:55 | NW 19 G 39 | 16.09 | Partly Cloudy | SCT065 | 12.6 | -1.8 | 37% | 74.85 | 0.0 | |||||||
| 04 | 17:35 | NW 24 G 37 | 16.09 | Partly Cloudy | SCT065 SCT075 | 12.3 | -1.6 | 38% | 74.8 | 0.0 | |||||||
| 04 | 17:15 | NW 26 G 44 | 16.09 | Partly Cloudy | SCT070 | 13.8 | -1.1 | 36% | 74.78 | 0.0 | |||||||
| 04 | 16:55 | NW 19 G 37 | 16.09 | Partly Cloudy | SCT070 | 14.3 | -0.4 | 37% | 74.75 | 0.0 | |||||||
| Date | Time (cdt) | Wind (kph) | Vis. (km) | Weather | Sky Cond. | Air | Dwpt | Max. | Min. | Relative Humidity | Wind Chill (°C) | Heat Index (°C) | altimeter (cm) | sea level (mb) | 1 hr | 3 hr | 6 hr |
| 6 hour | |||||||||||||||||
| Temperature (ºC) | Pressure | Precipitation (cm) | |||||||||||||||